Time,TemperatureF,DewpointF,PressureIn,WindDirection,WindDirectionDegrees,WindSpeedMPH,WindSpeedGustMPH,Humidity,HourlyPrecipIn,Conditions,Clouds,dailyrainin,SoftwareType,DateUTC
2013-10-28 00:04:00,52.9,49.7,29.79,South,180,0.0,-999.0,89,-99.99,,,0.00,Acu-Link.com,2013-10-28 04:04:00,
2013-10-28 00:19:00,52.9,49.4,29.79,East,90,0.0,-999.0,88,-99.99,,,0.00,Acu-Link.com,2013-10-28 04:19:00,
2013-10-28 00:35:00,52.9,49.4,29.79,NE,45,0.0,-999.0,88,-99.99,,,0.00,Acu-Link.com,2013-10-28 04:35:00,
2013-10-28 00:50:00,53.1,49.6,29.78,NE,45,0.0,-999.0,88,-99.99,,,0.00,Acu-Link.com,2013-10-28 04:50:00,
2013-10-28 01:05:00,53.4,49.3,29.77,ENE,67,0.0,-999.0,86,-99.99,,,0.00,Acu-Link.com,2013-10-28 05:05:00,
2013-10-28 01:20:00,53.4,49.6,29.78,East,90,0.0,-999.0,87,-99.99,,,0.00,Acu-Link.com,2013-10-28 05:20:00,
2013-10-28 01:35:00,52.9,49.1,29.79,NE,45,0.0,-999.0,87,-99.99,,,0.00,Acu-Link.com,2013-10-28 05:35:00,
2013-10-28 01:50:00,52.2,49.1,29.79,SSW,202,0.0,-999.0,89,-99.99,,,0.00,Acu-Link.com,2013-10-28 05:50:00,
2013-10-28 02:06:00,52.0,49.5,29.79,WSW,247,0.0,-999.0,91,-99.99,,,0.00,Acu-Link.com,2013-10-28 06:06:00,
2013-10-28 02:21:00,51.8,49.3,29.79,NNE,22,0.0,-999.0,91,-99.99,,,0.00,Acu-Link.com,2013-10-28 06:21:00,
2013-10-28 02:36:00,51.8,49.3,29.80,NE,45,0.0,-999.0,91,-99.99,,,0.00,Acu-Link.com,2013-10-28 06:36:00,
2013-10-28 02:51:00,52.5,49.7,29.80,ENE,67,0.0,-999.0,90,-99.99,,,0.00,Acu-Link.com,2013-10-28 06:51:00,
2013-10-28 03:06:00,52.9,49.7,29.79,NNE,22,0.0,-999.0,89,-99.99,,,0.00,Acu-Link.com,2013-10-28 07:06:00,
2013-10-28 03:21:00,52.5,49.7,29.80,NNW,337,0.0,-999.0,90,-99.99,,,0.00,Acu-Link.com,2013-10-28 07:21:00,
2013-10-28 03:36:00,53.2,50.0,29.80,North,0,0.0,-999.0,89,-99.99,,,0.00,Acu-Link.com,2013-10-28 07:36:00,
2013-10-28 03:51:00,53.8,50.3,29.79,NW,315,0.0,-999.0,88,-99.99,,,0.00,Acu-Link.com,2013-10-28 07:51:00,
2013-10-28 04:07:00,54.1,50.6,29.80,NE,45,0.0,-999.0,88,-99.99,,,0.00,Acu-Link.com,2013-10-28 08:07:00,
2013-10-28 04:22:00,54.5,50.7,29.80,ENE,67,2.2,-999.0,87,-99.99,,,0.00,Acu-Link.com,2013-10-28 08:22:00,
2013-10-28 04:37:00,54.5,50.7,29.81,NW,315,1.7,-999.0,87,-99.99,,,0.00,Acu-Link.com,2013-10-28 08:37:00,
2013-10-28 04:52:00,54.3,50.5,29.81,NW,315,0.0,-999.0,87,-99.99,,,0.00,Acu-Link.com,2013-10-28 08:52:00,
2013-10-28 05:07:00,54.3,50.5,29.81,West,270,0.0,-999.0,87,-99.99,,,0.00,Acu-Link.com,2013-10-28 09:07:00,
2013-10-28 05:22:00,54.1,50.6,29.82,NNE,22,2.2,-999.0,88,-99.99,,,0.00,Acu-Link.com,2013-10-28 09:22:00,
2013-10-28 05:38:00,54.1,50.6,29.82,NW,315,0.0,-999.0,88,-99.99,,,0.00,Acu-Link.com,2013-10-28 09:38:00,
2013-10-28 05:53:00,54.0,50.5,29.82,NNW,337,0.0,-999.0,88,-99.99,,,0.00,Acu-Link.com,2013-10-28 09:53:00,
2013-10-28 06:08:00,53.8,50.3,29.83,SW,225,0.0,-999.0,88,-99.99,,,0.00,Acu-Link.com,2013-10-28 10:08:00,
2013-10-28 06:23:00,53.6,50.4,29.83,SW,225,0.0,-999.0,89,-99.99,,,0.00,Acu-Link.com,2013-10-28 10:23:00,
2013-10-28 06:38:00,53.6,50.4,29.84,NE,45,0.0,-999.0,89,-99.99,,,0.00,Acu-Link.com,2013-10-28 10:38:00,
2013-10-28 06:54:00,53.6,50.7,29.85,NNW,337,0.0,-999.0,90,-99.99,,,0.00,Acu-Link.com,2013-10-28 10:54:00,
2013-10-28 07:09:00,53.6,50.7,29.85,NE,45,0.0,-999.0,90,-99.99,,,0.00,Acu-Link.com,2013-10-28 11:09:00,
2013-10-28 07:24:00,53.6,51.0,29.86,SW,225,0.0,-999.0,91,-99.99,,,0.00,Acu-Link.com,2013-10-28 11:24:00,
2013-10-28 07:40:00,53.4,51.4,29.86,SSW,202,0.0,-999.0,93,-99.99,,,0.00,Acu-Link.com,2013-10-28 11:40:00,
2013-10-28 07:55:00,53.2,51.5,29.87,NE,45,0.0,-999.0,94,-99.99,,,0.00,Acu-Link.com,2013-10-28 11:55:00,
2013-10-28 08:10:00,52.9,51.8,29.87,West,270,0.0,-999.0,96,-99.99,,,0.00,Acu-Link.com,2013-10-28 12:10:00,
2013-10-28 08:25:00,52.7,51.9,29.89,NE,45,0.0,-999.0,97,-99.99,,,0.00,Acu-Link.com,2013-10-28 12:25:00,
2013-10-28 08:41:00,52.9,51.8,29.88,NNE,22,0.0,-999.0,96,-99.99,,,0.00,Acu-Link.com,2013-10-28 12:41:00,
2013-10-28 08:56:00,53.1,51.7,29.89,NNW,337,0.0,-999.0,95,-99.99,,,0.00,Acu-Link.com,2013-10-28 12:56:00,
2013-10-28 09:11:00,53.1,52.3,29.89,WNW,292,0.0,-999.0,97,-99.99,,,0.00,Acu-Link.com,2013-10-28 13:11:00,
2013-10-28 09:26:00,53.2,52.1,29.90,NW,315,0.0,-999.0,96,-99.99,,,0.00,Acu-Link.com,2013-10-28 13:26:00,
2013-10-28 09:42:00,53.2,52.9,29.90,NNW,337,0.0,-999.0,99,-99.99,,,0.00,Acu-Link.com,2013-10-28 13:42:00,
2013-10-28 09:57:00,53.2,52.6,29.90,NW,315,0.0,-999.0,98,-99.99,,,0.00,Acu-Link.com,2013-10-28 13:57:00,
2013-10-28 10:12:00,53.6,53.3,29.90,NNW,337,0.0,-999.0,99,-99.99,,,0.00,Acu-Link.com,2013-10-28 14:12:00,
2013-10-28 10:27:00,53.8,53.2,29.91,NNW,337,0.0,-999.0,98,-99.99,,,0.00,Acu-Link.com,2013-10-28 14:27:00,
2013-10-28 10:42:00,54.1,53.3,29.92,NE,45,0.0,-999.0,97,-99.99,,,0.00,Acu-Link.com,2013-10-28 14:42:00,
2013-10-28 10:58:00,54.7,53.3,29.91,NNW,337,0.0,-999.0,95,-99.99,,,0.00,Acu-Link.com,2013-10-28 14:58:00,
2013-10-28 11:13:00,55.2,53.8,29.91,NE,45,0.0,-999.0,95,-99.99,,,0.00,Acu-Link.com,2013-10-28 15:13:00,
2013-10-28 11:28:00,55.8,53.8,29.92,ENE,67,0.0,-999.0,93,-99.99,,,0.00,Acu-Link.com,2013-10-28 15:28:00,
2013-10-28 11:43:00,56.3,54.0,29.92,NE,45,0.0,-999.0,92,-99.99,,,0.00,Acu-Link.com,2013-10-28 15:43:00,
2013-10-28 11:58:00,56.7,54.1,29.93,WNW,292,0.0,-999.0,91,-99.99,,,0.00,Acu-Link.com,2013-10-28 15:58:00,
2013-10-28 12:14:00,57.6,54.7,29.92,East,90,0.0,-999.0,90,-99.99,,,0.00,Acu-Link.com,2013-10-28 16:14:00,
2013-10-28 12:29:00,58.3,55.1,29.92,East,90,0.0,-999.0,89,-99.99,,,0.00,Acu-Link.com,2013-10-28 16:29:00,
2013-10-28 12:44:00,58.8,54.9,29.92,South,180,0.0,-999.0,87,-99.99,,,0.00,Acu-Link.com,2013-10-28 16:44:00,
2013-10-28 12:59:00,59.7,54.2,29.92,SSW,202,0.0,-999.0,82,-99.99,,,0.00,Acu-Link.com,2013-10-28 16:59:00,
2013-10-28 13:15:00,60.3,54.4,29.91,SSW,202,2.2,-999.0,81,-99.99,,,0.00,Acu-Link.com,2013-10-28 17:15:00,
2013-10-28 13:30:00,60.8,53.9,29.90,SSW,202,1.7,-999.0,78,-99.99,,,0.00,Acu-Link.com,2013-10-28 17:30:00,
2013-10-28 13:45:00,60.6,54.0,29.90,South,180,2.2,-999.0,79,-99.99,,,0.00,Acu-Link.com,2013-10-28 17:45:00,
2013-10-28 14:00:00,60.4,54.9,29.90,SSW,202,2.2,-999.0,82,-99.99,,,0.00,Acu-Link.com,2013-10-28 18:00:00,
2013-10-28 14:15:00,60.6,54.4,29.89,South,180,1.7,-999.0,80,-99.99,,,0.00,Acu-Link.com,2013-10-28 18:15:00,
2013-10-28 14:31:00,61.5,53.9,29.89,SSW,202,1.7,-999.0,76,-99.99,,,0.00,Acu-Link.com,2013-10-28 18:31:00,
2013-10-28 14:46:00,63.0,53.1,29.88,West,270,1.7,-999.0,70,-99.99,,,0.00,Acu-Link.com,2013-10-28 18:46:00,
2013-10-28 15:01:00,63.0,52.7,29.88,SSW,202,3.2,-999.0,69,-99.99,,,0.00,Acu-Link.com,2013-10-28 19:01:00,
2013-10-28 15:16:00,62.6,52.3,29.88,SW,225,3.2,-999.0,69,-99.99,,,0.00,Acu-Link.com,2013-10-28 19:16:00,
2013-10-28 15:31:00,62.1,52.6,29.87,SSW,202,1.7,-999.0,71,-99.99,,,0.00,Acu-Link.com,2013-10-28 19:31:00,
2013-10-28 15:47:00,61.7,53.3,29.87,SW,225,1.1,-999.0,74,-99.99,,,0.00,Acu-Link.com,2013-10-28 19:47:00,
2013-10-28 16:02:00,61.2,52.1,29.87,SSW,202,4.7,-999.0,72,-99.99,,,0.00,Acu-Link.com,2013-10-28 20:02:00,
2013-10-28 16:17:00,62.2,53.1,29.87,South,180,1.7,-999.0,72,-99.99,,,0.00,Acu-Link.com,2013-10-28 20:17:00,
2013-10-28 16:32:00,61.2,52.1,29.87,SSW,202,3.7,-999.0,72,-99.99,,,0.00,Acu-Link.com,2013-10-28 20:32:00,
2013-10-28 16:47:00,60.8,52.5,29.87,SSW,202,3.7,-999.0,74,-99.99,,,0.00,Acu-Link.com,2013-10-28 20:47:00,
2013-10-28 17:03:00,60.6,53.0,29.87,SSW,202,2.7,-999.0,76,-99.99,,,0.00,Acu-Link.com,2013-10-28 21:03:00,
2013-10-28 17:18:00,60.6,52.6,29.87,SSW,202,2.2,-999.0,75,-99.99,,,0.00,Acu-Link.com,2013-10-28 21:18:00,
2013-10-28 17:33:00,60.8,52.8,29.88,SSW,202,2.2,-999.0,75,-99.99,,,0.00,Acu-Link.com,2013-10-28 21:33:00,
2013-10-28 17:49:00,59.7,52.1,29.88,SSW,202,4.2,-999.0,76,-99.99,,,0.00,Acu-Link.com,2013-10-28 21:49:00,
2013-10-28 18:04:00,59.2,51.6,29.88,SSW,202,3.2,-999.0,76,-99.99,,,0.00,Acu-Link.com,2013-10-28 22:04:00,
2013-10-28 18:19:00,58.8,51.3,29.89,SW,225,2.2,-999.0,76,-99.99,,,0.00,Acu-Link.com,2013-10-28 22:19:00,
2013-10-28 18:34:00,58.3,51.5,29.88,SSW,202,2.7,-999.0,78,-99.99,,,0.00,Acu-Link.com,2013-10-28 22:34:00,
2013-10-28 18:49:00,57.7,51.2,29.89,SSW,202,2.2,-999.0,79,-99.99,,,0.00,Acu-Link.com,2013-10-28 22:49:00,
2013-10-28 19:04:00,57.6,51.1,29.89,SSW,202,2.2,-999.0,79,-99.99,,,0.00,Acu-Link.com,2013-10-28 23:04:00,
2013-10-28 19:20:00,57.4,51.6,29.89,SSW,202,2.7,-999.0,81,-99.99,,,0.00,Acu-Link.com,2013-10-28 23:20:00,
2013-10-28 19:35:00,57.0,51.6,29.90,SW,225,2.2,-999.0,82,-99.99,,,0.00,Acu-Link.com,2013-10-28 23:35:00,
2013-10-28 19:50:00,56.7,51.3,29.90,SW,225,2.2,-999.0,82,-99.99,,,0.00,Acu-Link.com,2013-10-28 23:50:00,
2013-10-28 20:05:00,56.3,51.2,29.91,SW,225,2.2,-999.0,83,-99.99,,,0.00,Acu-Link.com,2013-10-29 00:05:00,
2013-10-28 20:21:00,56.1,51.3,29.91,SSW,202,1.7,-999.0,84,-99.99,,,0.00,Acu-Link.com,2013-10-29 00:21:00,
2013-10-28 20:36:00,56.1,51.7,29.92,SSW,202,2.2,-999.0,85,-99.99,,,0.00,Acu-Link.com,2013-10-29 00:36:00,
2013-10-28 20:51:00,56.1,51.7,29.92,SSW,202,2.7,-999.0,85,-99.99,,,0.00,Acu-Link.com,2013-10-29 00:51:00,
2013-10-28 21:07:00,56.1,51.7,29.92,SW,225,2.2,-999.0,85,-99.99,,,0.00,Acu-Link.com,2013-10-29 01:07:00,
2013-10-28 21:22:00,56.1,52.0,29.92,WSW,247,0.0,-999.0,86,-99.99,,,0.00,Acu-Link.com,2013-10-29 01:22:00,
2013-10-28 21:37:00,55.9,51.8,29.93,SSW,202,1.7,-999.0,86,-99.99,,,0.00,Acu-Link.com,2013-10-29 01:37:00,
2013-10-28 21:52:00,55.8,52.0,29.92,SSW,202,0.0,-999.0,87,-99.99,,,0.00,Acu-Link.com,2013-10-29 01:52:00,
2013-10-28 22:08:00,55.8,52.0,29.92,SW,225,0.0,-999.0,87,-99.99,,,0.00,Acu-Link.com,2013-10-29 02:08:00,
2013-10-28 22:23:00,55.4,51.9,29.92,SSW,202,1.7,-999.0,88,-99.99,,,0.00,Acu-Link.com,2013-10-29 02:23:00,
2013-10-28 22:38:00,55.4,52.2,29.93,WSW,247,0.0,-999.0,89,-99.99,,,0.00,Acu-Link.com,2013-10-29 02:38:00,
2013-10-28 22:53:00,55.4,52.2,29.92,SSW,202,0.0,-999.0,89,-99.99,,,0.00,Acu-Link.com,2013-10-29 02:53:00,
2013-10-28 23:08:00,55.0,52.4,29.92,WNW,292,0.0,-999.0,91,-99.99,,,0.00,Acu-Link.com,2013-10-29 03:08:00,
2013-10-28 23:23:00,54.9,52.3,29.93,NNW,337,0.0,-999.0,91,-99.99,,,0.00,Acu-Link.com,2013-10-29 03:23:00,
2013-10-28 23:39:00,54.7,52.4,29.92,SSW,202,0.0,-999.0,92,-99.99,,,0.00,Acu-Link.com,2013-10-29 03:39:00,
2013-10-28 23:54:00,54.7,52.4,29.92,ESE,112,0.0,-999.0,92,-99.99,,,0.00,Acu-Link.com,2013-10-29 03:54:00,